Bainville, Montana
Current Conditions -  °F | °C
As of 7:52 PM on Sunday 21 Dec 2014 (Local Time) from KISN Reporting Station
Overcast Overcast  
Wind Chill: 31°   Ceiling: 6000
Heat Index: 31°   Visibility: 10mi
Dew Point: 27°   Wind: 3mph
Humidity: 85%   Direction: 120°ESE
Pressure: 29.37"   Gusts: NA
Location:  48.14°N, 104.22°W
Report Text: KISN 220252Z AUTO 12003KT 10SM OVC060 M01/M03 A2937 RMK AO2 SLP973 T10061028 51006 $
Loading
Personal Weather Stations






























Interactive Weather Map New forecast layout! Learn more

10-Day Weather Forecast

Advertisements
Track Severe Weather on mobile